createdAt,value
2023-02-03T00:00:40.152Z,93164.13
2023-02-03T00:02:11.833Z,93155.66
2023-02-03T00:03:43.469Z,93149.25
2023-02-03T00:05:15.065Z,93146.91
2023-02-03T00:06:46.625Z,93143.50
2023-02-03T00:08:18.579Z,93143.75
2023-02-03T00:09:50.429Z,93146.16
2023-02-03T00:11:22.740Z,93140.03
2023-02-03T00:12:55.086Z,93136.53
2023-02-03T00:14:26.735Z,93140.78
2023-02-03T00:15:58.342Z,93151.66
2023-02-03T00:17:30.101Z,93152.94
2023-02-03T00:19:01.874Z,93152.16
2023-02-03T00:20:33.414Z,93166.78
2023-02-03T00:22:05.002Z,93152.94
2023-02-03T00:23:36.518Z,93156.16
2023-02-03T00:25:08.101Z,93147.63
2023-02-03T00:26:42.735Z,93139.69
2023-02-03T00:28:14.325Z,93137.81
2023-02-03T00:29:45.867Z,93138.63
2023-02-03T00:31:21.656Z,93151.66
2023-02-03T00:32:53.225Z,93172.09
2023-02-03T00:34:28.097Z,93184.06
2023-02-03T00:36:05.018Z,93171.59
2023-02-03T00:37:36.725Z,93170.50
2023-02-03T00:39:08.276Z,93168.84
2023-02-03T00:40:39.721Z,93174.69
2023-02-03T00:42:11.319Z,93170.91
2023-02-03T00:43:43.018Z,93171.94
2023-02-03T00:45:14.973Z,93171.94
2023-02-03T00:46:46.938Z,93174.59
2023-02-03T00:48:18.935Z,93178.31
2023-02-03T00:49:50.632Z,93183.63
2023-02-03T00:51:22.140Z,93184.66
2023-02-03T00:52:53.660Z,93193.69
2023-02-03T00:54:28.167Z,93202.13
2023-02-03T00:56:02.662Z,93201.59
2023-02-03T00:57:34.302Z,93205.28
2023-02-03T00:59:05.944Z,93201.06
2023-02-03T01:00:37.481Z,93206.63
2023-02-03T01:02:18.147Z,93203.41
2023-02-03T01:03:51.783Z,93204.72
2023-02-03T01:05:25.766Z,93208.41
2023-02-03T01:06:58.381Z,93217.19
2023-02-03T01:08:32.317Z,93224.34
2023-02-03T01:10:04.263Z,93224.03
2023-02-03T01:11:35.867Z,93221.09
2023-02-03T01:13:07.374Z,93229.56
2023-02-03T01:14:38.975Z,93225.28
2023-02-03T01:16:13.567Z,93234.84
2023-02-03T01:17:45.135Z,93241.78
2023-02-03T01:19:17.070Z,93233.25
2023-02-03T01:20:48.555Z,93219.44
2023-02-03T01:22:22.151Z,93214.13
2023-02-03T01:23:55.117Z,93211.78
2023-02-03T01:25:27.408Z,93213.88
2023-02-03T01:26:59.008Z,93208.81
2023-02-03T01:28:31.035Z,93208.28
2023-02-03T01:30:02.623Z,93208.28
2023-02-03T01:31:35.528Z,93207.22
2023-02-03T01:33:07.145Z,93212.00
2023-02-03T01:34:38.691Z,93217.00
2023-02-03T01:36:10.618Z,93235.50
2023-02-03T01:37:42.263Z,93234.41
2023-02-03T01:39:14.029Z,93226.94
2023-02-03T01:40:45.808Z,93231.44
2023-02-03T01:42:17.300Z,93237.56
2023-02-03T01:43:52.811Z,93240.75
2023-02-03T01:45:24.406Z,93231.75
2023-02-03T01:46:55.986Z,93241.56
2023-02-03T01:48:27.640Z,93245.03
2023-02-03T01:50:11.605Z,93236.00
2023-02-03T01:51:43.259Z,93238.16
2023-02-03T01:53:14.861Z,93238.16
2023-02-03T01:54:46.709Z,93246.97
2023-02-03T01:56:18.323Z,93239.56
2023-02-03T01:57:54.467Z,93242.47
2023-02-03T01:59:26.105Z,93244.56
2023-02-03T02:00:58.158Z,93248.81
2023-02-03T02:02:30.107Z,93237.09
2023-02-03T02:04:02.049Z,93245.56
2023-02-03T02:05:41.489Z,93254.03
2023-02-03T02:07:13.086Z,93243.66
2023-02-03T02:08:45.965Z,93238.84
2023-02-03T02:10:17.540Z,93235.38
2023-02-03T02:11:49.053Z,93249.69
2023-02-03T02:13:20.625Z,93256.06
2023-02-03T02:14:52.098Z,93255.53
2023-02-03T02:16:23.602Z,93259.47
2023-02-03T02:18:02.223Z,93261.88
2023-02-03T02:19:52.148Z,93261.31
2023-02-03T02:21:41.950Z,93271.69
2023-02-03T02:23:25.768Z,93271.97
2023-02-03T02:25:04.728Z,93278.34
2023-02-03T02:26:45.498Z,93286.34
2023-02-03T02:28:36.815Z,93293.03
2023-02-03T02:30:08.393Z,93291.66
2023-02-03T02:31:43.503Z,93296.72
2023-02-03T02:33:20.070Z,93295.91
2023-02-03T02:34:51.754Z,93295.13
2023-02-03T02:36:38.946Z,93300.41
2023-02-03T02:38:13.150Z,93298.81
2023-02-03T02:40:00.149Z,93298.81
2023-02-03T02:41:31.602Z,93306.78
2023-02-03T02:43:12.739Z,93304.59
2023-02-03T02:44:49.532Z,93304.59
2023-02-03T02:46:25.067Z,93317.88
2023-02-03T02:47:59.654Z,93312.56
2023-02-03T02:49:33.307Z,93315.50
2023-02-03T02:51:05.602Z,93318.91
2023-02-03T02:52:37.726Z,93310.47
2023-02-03T02:54:09.799Z,93319.78
2023-02-03T02:55:41.365Z,93310.78
2023-02-03T02:57:13.158Z,93306.31
2023-02-03T02:58:45.174Z,93314.84
2023-02-03T03:00:16.842Z,93311.09
2023-02-03T03:01:48.564Z,93308.69
2023-02-03T03:03:20.979Z,93312.72
2023-02-03T03:04:52.751Z,93318.78
2023-02-03T03:06:25.877Z,93315.28
2023-02-03T03:07:59.381Z,93318.13
2023-02-03T03:09:36.201Z,93327.63
2023-02-03T03:11:07.828Z,93321.72
2023-02-03T03:12:40.652Z,93320.09
2023-02-03T03:14:12.247Z,93323.81
2023-02-03T03:15:44.587Z,93323.00
2023-02-03T03:17:17.748Z,93329.34
2023-02-03T03:18:49.645Z,93329.59
2023-02-03T03:20:21.942Z,93332.56
2023-02-03T03:21:57.224Z,93326.44
2023-02-03T03:23:30.134Z,93339.88
2023-02-03T03:25:03.648Z,93338.44
2023-02-03T03:26:36.379Z,93336.22
2023-02-03T03:28:13.292Z,93336.94
2023-02-03T03:29:47.727Z,93329.19
2023-02-03T03:31:19.606Z,93324.69
2023-02-03T03:32:51.117Z,93331.03
2023-02-03T03:34:22.666Z,93330.28
2023-02-03T03:35:59.895Z,93335.09
2023-02-03T03:37:35.713Z,93327.94
2023-02-03T03:39:22.418Z,93332.44
2023-02-03T03:40:58.115Z,93328.44
2023-02-03T03:42:39.382Z,93324.69
2023-02-03T03:44:11.840Z,93330.59
2023-02-03T03:45:46.031Z,93323.69
2023-02-03T03:47:19.292Z,93323.69
2023-02-03T03:48:57.412Z,93330.34
2023-02-03T03:50:29.519Z,93331.16
2023-02-03T03:52:01.829Z,93321.94
2023-02-03T03:53:33.957Z,93326.97
2023-02-03T03:55:07.626Z,93314.22
2023-02-03T03:56:44.058Z,93317.09
2023-02-03T03:58:23.171Z,93321.59
2023-02-03T03:59:54.671Z,93320.47
2023-02-03T04:01:26.367Z,93321.75
2023-02-03T04:02:58.505Z,93321.00
2023-02-03T04:04:30.306Z,93320.66
2023-02-03T04:06:01.964Z,93317.78
2023-02-03T04:07:43.374Z,93320.47
2023-02-03T04:09:15.106Z,93320.81
2023-02-03T04:10:46.757Z,93315.75
2023-02-03T04:12:23.179Z,93318.88
2023-02-03T04:13:54.747Z,93323.63
2023-02-03T04:15:26.243Z,93327.56
2023-02-03T04:16:58.237Z,93320.34
2023-02-03T04:18:29.840Z,93327.72
2023-02-03T04:20:01.454Z,93330.06
2023-02-03T04:21:33.014Z,93327.91
2023-02-03T04:23:04.548Z,93328.63
2023-02-03T04:24:36.008Z,93335.22
2023-02-03T04:26:07.643Z,93334.41
2023-02-03T04:27:39.357Z,93335.47
2023-02-03T04:29:10.958Z,93338.69
2023-02-03T04:30:42.478Z,93337.59
2023-02-03T04:32:14.048Z,93342.44
2023-02-03T04:33:45.563Z,93343.81
2023-02-03T04:35:17.139Z,93346.69
2023-02-03T04:36:48.728Z,93344.28
2023-02-03T04:38:20.297Z,93350.38
2023-02-03T04:39:52.414Z,93344.28
2023-02-03T04:41:24.413Z,93356.72
2023-02-03T04:42:56.357Z,93360.97
2023-02-03T04:44:28.418Z,93356.72
2023-02-03T04:46:00.933Z,93357.28
2023-02-03T04:47:32.526Z,93362.34
2023-02-03T04:49:04.112Z,93363.41
2023-02-03T04:50:35.714Z,93366.28
2023-02-03T04:52:07.370Z,93369.16
2023-02-03T04:53:39.184Z,93367.81
2023-02-03T04:55:11.076Z,93367.25
2023-02-03T04:56:43.031Z,93375.13
2023-02-03T04:58:14.788Z,93377.19
2023-02-03T04:59:46.350Z,93371.34
2023-02-03T05:01:17.792Z,93377.69
2023-02-03T05:02:49.836Z,93378.50
2023-02-03T05:04:21.630Z,93380.59
2023-02-03T05:05:53.144Z,93375.53
2023-02-03T05:07:25.021Z,93377.13
2023-02-03T05:08:56.844Z,93385.66
2023-02-03T05:10:28.603Z,93389.91
2023-02-03T05:12:00.641Z,93385.66
2023-02-03T05:13:32.262Z,93387.50
2023-02-03T05:15:03.864Z,93385.88
2023-02-03T05:16:35.468Z,93386.91
2023-02-03T05:18:07.194Z,93391.19
2023-02-03T05:19:38.798Z,93389.34
2023-02-03T05:21:10.386Z,93387.25
2023-02-03T05:22:42.008Z,93390.13
2023-02-03T05:24:13.644Z,93391.66
2023-02-03T05:25:45.906Z,93400.06
2023-02-03T05:27:18.781Z,93394.69
2023-02-03T05:28:51.746Z,93395.88
2023-02-03T05:30:23.867Z,93404.31
2023-02-03T05:31:55.448Z,93408.13
2023-02-03T05:33:27.173Z,93411.81
2023-02-03T05:34:58.683Z,93409.16
2023-02-03T05:36:30.341Z,93413.94
2023-02-03T05:38:02.159Z,93410.72
2023-02-03T05:39:33.804Z,93420.50
2023-02-03T05:41:23.683Z,93426.03
2023-02-03T05:42:55.267Z,93422.56
2023-02-03T05:44:27.251Z,93418.41
2023-02-03T05:46:02.177Z,93421.06
2023-02-03T05:47:33.718Z,93414.16
2023-02-03T05:49:05.290Z,93423.13
2023-02-03T05:50:38.603Z,93415.19
2023-02-03T05:52:10.600Z,93420.50
2023-02-03T05:53:42.126Z,93413.25
2023-02-03T05:55:13.687Z,93409.78
2023-02-03T05:56:45.792Z,93413.47
2023-02-03T05:58:17.445Z,93419.81
2023-02-03T05:59:49.953Z,93420.88
2023-02-03T06:01:21.608Z,93425.09
2023-02-03T06:02:53.809Z,93420.63
2023-02-03T06:04:25.380Z,93423.59
2023-02-03T06:05:57.108Z,93417.75
2023-02-03T06:07:28.662Z,93416.69
2023-02-03T06:09:01.030Z,93421.19
2023-02-03T06:10:32.570Z,93421.66
2023-02-03T06:12:04.285Z,93428.81
2023-02-03T06:13:35.894Z,93429.06
2023-02-03T06:15:07.724Z,93432.50
2023-02-03T06:16:39.700Z,93441.00
2023-02-03T06:18:11.424Z,93438.91
2023-02-03T06:19:42.939Z,93442.13
2023-02-03T06:21:14.559Z,93437.75
2023-02-03T06:22:46.242Z,93438.78
2023-02-03T06:24:17.849Z,93434.84
2023-02-03T06:25:49.615Z,93436.72
2023-02-03T06:27:21.147Z,93438.31
2023-02-03T06:28:52.690Z,93449.69
2023-02-03T06:30:24.131Z,93448.44
2023-02-03T06:31:55.734Z,93450.03
2023-02-03T06:33:27.816Z,93448.31
2023-02-03T06:34:59.574Z,93453.69
2023-02-03T06:36:35.098Z,93453.44
2023-02-03T06:38:12.772Z,93453.44
2023-02-03T06:39:45.670Z,93457.47
2023-02-03T06:41:17.404Z,93456.75
2023-02-03T06:42:49.192Z,93449.13
2023-02-03T06:44:20.674Z,93467.78
2023-02-03T06:45:52.906Z,93464.63
2023-02-03T06:47:24.606Z,93468.44
2023-02-03T06:48:56.479Z,93463.34
2023-02-03T06:50:28.268Z,93470.50
2023-02-03T06:52:00.819Z,93475.56
2023-02-03T06:53:32.551Z,93474.06
2023-02-03T06:55:04.680Z,93480.69
2023-02-03T06:56:36.301Z,93473.09
2023-02-03T06:58:07.964Z,93473.72
2023-02-03T06:59:39.501Z,93465.06
2023-02-03T07:01:11.305Z,93459.59
2023-02-03T07:02:42.962Z,93469.25
2023-02-03T07:04:14.636Z,93467.25
2023-02-03T07:05:46.215Z,93461.56
2023-02-03T07:07:17.877Z,93467.75
2023-02-03T07:08:49.405Z,93466.22
2023-02-03T07:10:20.993Z,93471.09
2023-02-03T07:11:52.501Z,93469.81
2023-02-03T07:13:27.353Z,93462.69
2023-02-03T07:14:58.873Z,93465.56
2023-02-03T07:16:31.417Z,93469.34
2023-02-03T07:18:03.000Z,93473.34
2023-02-03T07:19:34.718Z,93472.63
2023-02-03T07:21:07.109Z,93459.97
2023-02-03T07:22:40.847Z,93470.03
2023-02-03T07:24:12.443Z,93470.47
2023-02-03T07:25:44.101Z,93473.50
2023-02-03T07:27:15.735Z,93483.69
2023-02-03T07:28:47.348Z,93477.34
2023-02-03T07:30:19.088Z,93473.88
2023-02-03T07:31:50.945Z,93479.50
2023-02-03T07:33:22.559Z,93475.25
2023-02-03T07:34:54.065Z,93479.50
2023-02-03T07:36:25.681Z,93473.47
2023-02-03T07:37:57.204Z,93472.97
2023-02-03T07:39:28.810Z,93469.25
2023-02-03T07:41:00.364Z,93476.41
2023-02-03T07:42:32.007Z,93475.03
2023-02-03T07:44:03.617Z,93479.94
2023-02-03T07:45:35.331Z,93483.50
2023-02-03T07:47:06.855Z,93478.38
2023-02-03T07:48:38.408Z,93481.81
2023-02-03T07:50:12.940Z,93477.56
2023-02-03T07:51:44.632Z,93480.78
2023-02-03T07:53:16.340Z,93484.47
2023-02-03T07:54:47.906Z,93486.16
2023-02-03T07:56:19.458Z,93482.34
2023-02-03T07:57:51.048Z,93481.84
2023-02-03T07:59:22.645Z,93485.06
2023-02-03T08:00:54.701Z,93485.00
2023-02-03T08:02:26.458Z,93480.56
2023-02-03T08:03:58.149Z,93488.69
2023-02-03T08:05:30.403Z,93494.47
2023-02-03T08:07:02.314Z,93490.88
2023-02-03T08:08:34.276Z,93490.16
2023-02-03T08:10:07.140Z,93490.16
2023-02-03T08:11:39.228Z,93490.38
2023-02-03T08:13:10.713Z,93487.69
2023-02-03T08:14:42.470Z,93496.59
2023-02-03T08:16:14.419Z,93500.53
2023-02-03T08:17:46.871Z,93499.59
2023-02-03T08:19:19.014Z,93497.38
2023-02-03T08:20:50.846Z,93500.59
2023-02-03T08:22:22.479Z,93508.63
2023-02-03T08:23:54.018Z,93505.53
2023-02-03T08:25:25.669Z,93502.44
2023-02-03T08:26:57.206Z,93502.19
2023-02-03T08:28:28.730Z,93497.13
2023-02-03T08:30:00.381Z,93501.75
2023-02-03T08:31:32.253Z,93497.59
2023-02-03T08:33:04.104Z,93507.56
2023-02-03T08:34:35.740Z,93500.28
2023-02-03T08:36:07.468Z,93495.34
2023-02-03T08:37:39.151Z,93489.84
2023-02-03T08:39:10.786Z,93494.19
2023-02-03T08:40:42.557Z,93498.75
2023-02-03T08:42:14.221Z,93503.34
2023-02-03T08:43:46.137Z,93501.81
2023-02-03T08:45:18.129Z,93498.69
2023-02-03T08:46:50.606Z,93503.56
2023-02-03T08:48:22.275Z,93500.38
2023-02-03T08:49:53.828Z,93500.94
2023-02-03T08:51:25.672Z,93491.34
2023-02-03T08:52:57.258Z,93496.69
2023-02-03T08:54:28.900Z,93499.63
2023-02-03T08:56:00.677Z,93506.31
2023-02-03T08:57:33.209Z,93516.75
2023-02-03T08:59:04.789Z,93506.88
2023-02-03T09:00:36.299Z,93514.31
2023-02-03T09:02:08.250Z,93512.75
2023-02-03T09:03:39.843Z,93514.88
2023-02-03T09:05:11.490Z,93525.56
2023-02-03T09:06:43.134Z,93526.06
2023-02-03T09:08:14.942Z,93520.72
2023-02-03T09:09:46.788Z,93517.78
2023-02-03T09:11:19.011Z,93521.00
2023-02-03T09:12:51.043Z,93517.75
2023-02-03T09:14:23.058Z,93526.59
2023-02-03T09:15:54.583Z,93512.69
2023-02-03T09:17:26.405Z,93512.47
2023-02-03T09:18:58.007Z,93507.91
2023-02-03T09:20:29.951Z,93512.16
2023-02-03T09:22:02.087Z,93514.84
2023-02-03T09:23:35.739Z,93506.84
2023-02-03T09:25:07.477Z,93507.09
2023-02-03T09:26:42.217Z,93504.69
2023-02-03T09:28:13.933Z,93505.78
2023-02-03T09:29:45.750Z,93510.03
2023-02-03T09:31:30.050Z,93513.25
2023-02-03T09:33:08.125Z,93520.72
2023-02-03T09:34:41.746Z,93517.53
2023-02-03T09:36:14.478Z,93517.25
2023-02-03T09:37:46.041Z,93522.59
2023-02-03T09:39:17.656Z,93524.19
2023-02-03T09:41:14.900Z,93528.22
2023-02-03T09:42:52.745Z,93518.88
2023-02-03T09:44:30.226Z,93522.84
2023-02-03T09:46:25.448Z,93526.88
2023-02-03T09:48:00.367Z,93524.19
2023-02-03T09:49:41.606Z,93532.47
2023-02-03T09:51:51.263Z,93519.88
2023-02-03T09:53:29.908Z,93523.34
2023-02-03T09:55:09.245Z,93517.47
2023-02-03T09:56:59.485Z,93527.09
2023-02-03T09:58:33.444Z,93520.66
2023-02-03T10:00:14.087Z,93523.88
2023-02-03T10:02:03.236Z,93516.16
2023-02-03T10:03:37.560Z,93521.75
2023-02-03T10:05:12.583Z,93516.91
2023-02-03T10:06:45.220Z,93513.13
2023-02-03T10:08:22.628Z,93506.69
2023-02-03T10:09:58.174Z,93512.56
2023-02-03T10:11:35.447Z,93507.69
2023-02-03T10:13:26.016Z,93517.09
2023-02-03T10:15:03.978Z,93513.09
2023-02-03T10:16:53.622Z,93508.84
2023-02-03T10:20:47.926Z,93516.94
2023-02-03T10:22:20.623Z,93508.91
2023-02-03T10:23:52.307Z,93515.63
2023-02-03T10:25:26.246Z,93521.78
2023-02-03T10:26:57.906Z,93507.63
2023-02-03T10:28:55.647Z,93510.31
2023-02-03T10:30:34.704Z,93508.97
2023-02-03T10:32:10.382Z,93509.25
2023-02-03T10:33:43.727Z,93517.81
2023-02-03T10:35:15.991Z,93501.50
2023-02-03T10:36:54.017Z,93506.31
2023-02-03T10:38:31.448Z,93499.38
2023-02-03T10:40:03.359Z,93504.47
2023-02-03T10:41:35.193Z,93505.78
2023-02-03T10:43:24.997Z,93502.06
2023-02-03T10:44:57.280Z,93498.81
2023-02-03T10:46:35.458Z,93495.56
2023-02-03T10:48:10.244Z,93498.00
2023-02-03T10:49:43.549Z,93491.63
2023-02-03T10:51:25.189Z,93498.31
2023-02-03T10:53:19.150Z,93492.41
2023-02-03T10:54:50.842Z,93496.59
2023-02-03T10:56:26.128Z,93502.97
2023-02-03T10:57:57.771Z,93495.75
2023-02-03T10:59:30.367Z,93496.50
2023-02-03T11:01:05.849Z,93490.13
2023-02-03T11:02:37.576Z,93501.84
2023-02-03T11:04:22.502Z,93492.78
2023-02-03T11:06:13.278Z,93494.09
2023-02-03T11:07:44.973Z,93486.13
2023-02-03T11:09:22.379Z,93481.66
2023-02-03T11:10:56.308Z,93482.78
2023-02-03T11:12:27.953Z,93469.47
2023-02-03T11:14:05.452Z,93471.84
2023-02-03T11:15:37.103Z,93469.88
2023-02-03T11:17:09.368Z,93472.47
2023-02-03T11:18:54.659Z,93479.28
2023-02-03T11:20:29.025Z,93476.00
2023-02-03T11:22:01.309Z,93465.78
2023-02-03T11:23:32.854Z,93455.59
2023-02-03T11:25:05.116Z,93473.56
2023-02-03T11:26:42.608Z,93469.31
2023-02-03T11:28:14.474Z,93460.28
2023-02-03T11:29:46.839Z,93463.31
2023-02-03T11:31:19.883Z,93457.00
2023-02-03T11:32:52.040Z,93459.16
2023-02-03T11:34:37.015Z,93458.66
2023-02-03T11:36:09.497Z,93450.06
2023-02-03T11:37:42.168Z,93449.00
2023-02-03T11:39:17.851Z,93450.63
2023-02-03T11:40:49.605Z,93447.91
2023-02-03T11:42:24.866Z,93451.91
2023-02-03T11:43:57.995Z,93455.34
2023-02-03T11:45:41.558Z,93458.59
2023-02-03T11:47:13.125Z,93448.72
2023-02-03T11:48:44.777Z,93460.53
2023-02-03T11:50:16.323Z,93451.75
2023-02-03T11:51:51.825Z,93456.81
2023-02-03T11:53:28.100Z,93447.72
2023-02-03T11:55:06.568Z,93446.94
2023-02-03T11:57:01.780Z,93435.94
2023-02-03T11:58:33.886Z,93438.06
2023-02-03T12:00:26.683Z,93441.00
2023-02-03T12:01:58.427Z,93437.81
2023-02-03T12:03:50.630Z,93442.66
2023-02-03T12:05:32.280Z,93434.63
2023-02-03T12:07:15.770Z,93431.38
2023-02-03T12:08:56.786Z,93429.47
2023-02-03T12:10:28.708Z,93416.78
2023-02-03T12:12:30.158Z,93416.38
2023-02-03T12:14:07.637Z,93411.69
2023-02-03T12:15:51.810Z,93415.94
2023-02-03T12:17:38.958Z,93419.06
2023-02-03T12:19:28.843Z,93419.00
2023-02-03T12:21:14.138Z,93422.19
2023-02-03T12:23:15.721Z,93411.44
2023-02-03T12:25:25.760Z,93423.22
2023-02-03T12:27:00.244Z,93422.00
2023-02-03T12:28:33.981Z,93422.38
2023-02-03T12:30:11.745Z,93424.88
2023-02-03T12:31:45.149Z,93423.13
2023-02-03T12:33:16.745Z,93423.22
2023-02-03T12:34:50.402Z,93421.94
2023-02-03T12:36:24.310Z,93434.28
2023-02-03T12:38:00.242Z,93432.41
2023-02-03T12:39:35.927Z,93427.00
2023-02-03T12:41:17.545Z,93424.31
2023-02-03T12:42:56.171Z,93411.47
2023-02-03T12:44:30.237Z,93419.78
2023-02-03T12:59:21.099Z,93410.34
2023-02-03T13:06:06.348Z,93394.03
2023-02-03T13:08:01.579Z,93393.28
2023-02-03T13:09:33.183Z,93390.09
2023-02-03T13:11:24.785Z,93388.81
2023-02-03T13:12:56.901Z,93397.66
2023-02-03T13:14:28.456Z,93397.13
2023-02-03T13:16:00.248Z,93396.59
2023-02-03T13:17:34.537Z,93400.59
2023-02-03T13:19:07.367Z,93403.81
2023-02-03T13:20:38.989Z,93398.97
2023-02-03T13:22:13.851Z,93399.78
2023-02-03T13:23:45.647Z,93390.13
2023-02-03T13:25:20.113Z,93383.88
2023-02-03T13:27:10.430Z,93400.09
2023-02-03T13:29:00.123Z,93389.97
2023-02-03T13:30:31.900Z,93392.75
2023-02-03T13:32:03.580Z,93384.94
2023-02-03T13:33:53.670Z,93389.44
2023-02-03T13:35:43.944Z,93378.91
2023-02-03T13:37:34.420Z,93383.72
2023-02-03T13:39:05.900Z,93384.13
2023-02-03T13:40:40.561Z,93378.03
2023-02-03T13:42:15.559Z,93381.31
2023-02-03T13:43:48.380Z,93383.00
2023-02-03T13:45:25.554Z,93387.63
2023-02-03T13:46:57.862Z,93398.84
2023-02-03T13:48:30.538Z,93392.19
2023-02-03T13:50:02.937Z,93393.56
2023-02-03T13:51:38.221Z,93382.59
2023-02-03T13:53:23.314Z,93390.13
2023-02-03T13:54:55.076Z,93393.81
2023-02-03T13:56:28.661Z,93395.09
2023-02-03T13:58:00.557Z,93395.84
2023-02-03T13:59:37.787Z,93398.00
2023-02-03T14:01:28.371Z,93406.56
2023-02-03T14:03:00.353Z,93401.25
2023-02-03T14:04:36.815Z,93397.56
2023-02-03T14:06:11.810Z,93400.59
2023-02-03T14:07:43.371Z,93404.13
2023-02-03T14:09:36.110Z,93404.16
2023-02-03T14:11:26.821Z,93406.63
2023-02-03T14:13:00.141Z,93399.44
2023-02-03T14:14:35.011Z,93401.84
2023-02-03T14:16:23.542Z,93401.31
2023-02-03T14:17:56.140Z,93397.59
2023-02-03T14:19:31.664Z,93398.13
2023-02-03T14:21:10.600Z,93393.03
2023-02-03T14:22:42.505Z,93387.16
2023-02-03T14:24:14.177Z,93396.50
2023-02-03T14:25:47.210Z,93398.94
2023-02-03T14:27:27.945Z,93392.00
2023-02-03T14:28:59.926Z,93393.34
2023-02-03T14:30:31.992Z,93401.34
2023-02-03T14:32:06.922Z,93393.31
2023-02-03T14:33:45.772Z,93398.94
2023-02-03T14:35:24.862Z,93400.28
2023-02-03T14:36:56.870Z,93400.84
2023-02-03T14:38:31.605Z,93396.03
2023-02-03T14:40:21.608Z,93400.56
2023-02-03T14:41:56.439Z,93404.59
2023-02-03T14:43:47.051Z,93401.94
2023-02-03T14:45:30.989Z,93405.41
2023-02-03T14:47:12.736Z,93403.25
2023-02-03T14:48:53.660Z,93401.66
2023-02-03T14:50:33.694Z,93398.97
2023-02-03T14:52:14.959Z,93405.38
2023-02-03T14:53:52.465Z,93402.69
2023-02-03T14:55:42.946Z,93404.59
2023-02-03T14:57:19.047Z,93400.59
2023-02-03T14:59:01.846Z,93397.66
2023-02-03T15:00:34.359Z,93390.16
2023-02-03T15:02:07.074Z,93381.91
2023-02-03T15:03:42.069Z,93391.25
2023-02-03T15:05:13.888Z,93384.56
2023-02-03T15:06:47.075Z,93385.38
2023-02-03T15:08:53.855Z,93374.44
2023-02-03T15:10:27.991Z,93375.50
2023-02-03T15:11:59.783Z,93374.44
2023-02-03T15:13:31.809Z,93372.31
2023-02-03T15:15:13.770Z,93375.22
2023-02-03T15:16:45.475Z,93370.16
2023-02-03T15:18:26.901Z,93363.22
2023-02-03T15:19:58.581Z,93362.16
2023-02-03T15:21:30.142Z,93360.00
2023-02-03T15:23:21.949Z,93354.94
2023-02-03T15:25:04.426Z,93350.69
2023-02-03T15:26:45.391Z,93353.31
2023-02-03T15:28:20.435Z,93356.25
2023-02-03T15:29:52.427Z,93357.03
2023-02-03T15:31:26.214Z,93351.97
2023-02-03T15:33:01.390Z,93354.09
2023-02-03T15:34:33.096Z,93356.19
2023-02-03T15:36:06.590Z,93343.91
2023-02-03T15:37:45.926Z,93348.97
2023-02-03T15:39:25.232Z,93344.16
2023-02-03T15:41:00.669Z,93351.31
2023-02-03T15:42:35.584Z,93356.06
2023-02-03T15:44:12.387Z,93354.41
2023-02-03T15:45:56.567Z,93357.84
2023-02-03T15:47:30.337Z,93348.75
2023-02-03T15:49:07.491Z,93352.72
2023-02-03T15:50:50.286Z,93356.38
2023-02-03T15:52:22.835Z,93357.69
2023-02-03T15:54:03.916Z,93352.06
2023-02-03T15:55:45.567Z,93345.38
2023-02-03T15:57:18.565Z,93346.66
2023-02-03T15:58:50.403Z,93347.38
2023-02-03T16:00:27.737Z,93341.53
2023-02-03T16:01:59.682Z,93345.22
2023-02-03T16:03:37.895Z,93342.78
2023-02-03T16:05:19.545Z,93335.25
2023-02-03T16:06:51.462Z,93346.13
2023-02-03T16:08:34.889Z,93340.75
2023-02-03T16:10:06.939Z,93339.94
2023-02-03T16:11:38.746Z,93340.41
2023-02-03T16:13:14.868Z,93343.06
2023-02-03T16:14:46.565Z,93336.63
2023-02-03T16:16:22.046Z,93331.53
2023-02-03T16:17:59.815Z,93337.59
2023-02-03T16:19:34.386Z,93339.41
2023-02-03T16:21:06.044Z,93335.03
2023-02-03T16:22:57.907Z,93334.22
2023-02-03T16:24:35.423Z,93323.78
2023-02-03T16:26:07.016Z,93325.03
2023-02-03T16:27:38.512Z,93324.44
2023-02-03T16:29:28.551Z,93319.63
2023-02-03T16:31:19.688Z,93318.97
2023-02-03T16:33:19.332Z,93315.69
2023-02-03T16:35:09.717Z,93318.81
2023-02-03T16:37:00.754Z,93313.63
2023-02-03T16:38:51.053Z,93314.56
2023-02-03T16:40:41.660Z,93310.47
2023-02-03T16:42:34.937Z,93308.00
2023-02-03T16:44:25.149Z,93305.28
2023-02-03T16:46:16.041Z,93314.53
2023-02-03T16:48:06.485Z,93308.97
2023-02-03T16:49:56.581Z,93307.66
2023-02-03T16:51:29.720Z,93304.69
2023-02-03T16:53:01.312Z,93299.28
2023-02-03T16:54:32.932Z,93295.22
2023-02-03T16:56:04.824Z,93291.44
2023-02-03T16:57:36.353Z,93289.84
2023-02-03T16:59:08.020Z,93295.41
2023-02-03T17:00:41.909Z,93286.09
2023-02-03T17:02:13.597Z,93286.34
2023-02-03T17:03:45.625Z,93287.88
2023-02-03T17:05:17.546Z,93289.94
2023-02-03T17:06:51.371Z,93297.38
2023-02-03T17:08:23.733Z,93292.06
2023-02-03T17:09:55.315Z,93291.25
2023-02-03T17:11:27.307Z,93288.63
2023-02-03T17:12:58.839Z,93284.13
2023-02-03T17:14:30.995Z,93285.41
2023-02-03T17:16:07.581Z,93281.94
2023-02-03T17:17:39.249Z,93277.78
2023-02-03T17:19:11.451Z,93280.66
2023-02-03T17:20:43.403Z,93268.44
2023-02-03T17:22:14.954Z,93274.00
2023-02-03T17:23:46.558Z,93271.66
2023-02-03T17:25:18.053Z,93269.00
2023-02-03T17:26:50.575Z,93272.75
2023-02-03T17:28:22.140Z,93274.38
2023-02-03T17:29:53.875Z,93277.59
2023-02-03T17:31:25.613Z,93269.63
2023-02-03T17:32:59.355Z,93272.75
2023-02-03T17:34:31.107Z,93269.53
2023-02-03T17:36:05.864Z,93265.56
2023-02-03T17:37:37.459Z,93264.44
2023-02-03T17:53:40.910Z,93233.75
2023-02-03T17:55:12.585Z,93239.84
2023-02-03T17:56:47.853Z,93233.50
2023-02-03T17:58:19.446Z,93231.19
2023-02-03T17:59:55.365Z,93230.44
2023-02-03T18:01:27.120Z,93224.91
2023-02-03T18:02:58.839Z,93227.88
2023-02-03T18:04:30.414Z,93224.09
2023-02-03T18:06:04.526Z,93221.91
2023-02-03T18:07:36.201Z,93227.72
2023-02-03T18:09:09.219Z,93230.63
2023-02-03T18:10:40.747Z,93227.41
2023-02-03T18:12:12.314Z,93224.19
2023-02-03T18:13:44.867Z,93213.84
2023-02-03T18:15:16.893Z,93209.59
2023-02-03T18:16:48.994Z,93208.28
2023-02-03T18:18:21.518Z,93201.16
2023-02-03T18:19:56.194Z,93201.16
2023-02-03T18:21:28.381Z,93200.69
2023-02-03T18:22:59.940Z,93197.22
2023-02-03T18:24:31.845Z,93188.00
2023-02-03T18:26:03.781Z,93195.44
2023-02-03T18:27:35.316Z,93200.81
2023-02-03T18:29:07.250Z,93192.63
2023-02-03T18:30:38.851Z,93197.44
2023-02-03T18:32:10.696Z,93202.47
2023-02-03T18:33:42.421Z,93186.84
2023-02-03T18:35:17.021Z,93196.63
2023-02-03T18:36:48.559Z,93192.84
2023-02-03T18:38:20.706Z,93200.25
2023-02-03T18:39:52.661Z,93197.34
2023-02-03T18:41:24.606Z,93197.69
2023-02-03T18:42:59.652Z,93198.47
2023-02-03T18:44:31.942Z,93199.28
2023-02-03T18:46:10.614Z,93191.34
2023-02-03T18:47:42.311Z,93202.47
2023-02-03T18:49:14.657Z,93195.59
2023-02-03T18:50:46.219Z,93193.72
2023-02-03T18:52:17.876Z,93188.41
2023-02-03T18:53:49.649Z,93202.47
2023-02-03T18:55:21.213Z,93196.69
2023-02-03T18:56:52.753Z,93197.00
2023-02-03T18:58:24.326Z,93192.56
2023-02-03T18:59:56.177Z,93199.53
2023-02-03T19:01:28.697Z,93205.19
2023-02-03T19:03:00.329Z,93198.38
2023-02-03T19:04:31.981Z,93194.34
2023-02-03T19:06:08.756Z,93196.75
2023-02-03T19:07:40.941Z,93193.63
2023-02-03T19:09:15.305Z,93184.59